sensor_id;sensor_type;location;lat;lon;timestamp;P1;durP1;ratioP1;P2;durP2;ratioP2
73733;SDS011;62039;50.000;9.064;2024-03-23T00:54:40;6.97;;;5.73;;
73733;SDS011;62039;50.000;9.064;2024-03-23T00:57:05;6.23;;;5.60;;
73733;SDS011;62039;50.000;9.064;2024-03-23T00:59:31;5.93;;;5.30;;
73733;SDS011;62039;50.000;9.064;2024-03-23T01:01:57;5.73;;;5.17;;
73733;SDS011;62039;50.000;9.064;2024-03-23T01:04:23;5.97;;;5.37;;
73733;SDS011;62039;50.000;9.064;2024-03-23T01:06:48;6.60;;;5.33;;
73733;SDS011;62039;50.000;9.064;2024-03-23T01:09:14;6.07;;;5.50;;
73733;SDS011;62039;50.000;9.064;2024-03-23T01:11:43;6.73;;;6.03;;
73733;SDS011;62039;50.000;9.064;2024-03-23T01:14:08;6.70;;;6.03;;
73733;SDS011;62039;50.000;9.064;2024-03-23T01:16:34;6.77;;;6.10;;
73733;SDS011;62039;50.000;9.064;2024-03-23T01:19:00;7.33;;;6.20;;
73733;SDS011;62039;50.000;9.064;2024-03-23T01:21:26;6.67;;;5.33;;
73733;SDS011;62039;50.000;9.064;2024-03-23T01:23:52;7.80;;;7.07;;
73733;SDS011;62039;50.000;9.064;2024-03-23T01:26:18;9.57;;;7.23;;
73733;SDS011;62039;50.000;9.064;2024-03-23T01:28:46;7.30;;;6.60;;
73733;SDS011;62039;50.000;9.064;2024-03-23T01:31:12;7.30;;;6.30;;
73733;SDS011;62039;50.000;9.064;2024-03-23T01:33:37;8.20;;;6.30;;
73733;SDS011;62039;50.000;9.064;2024-03-23T01:36:03;7.47;;;6.10;;
73733;SDS011;62039;50.000;9.064;2024-03-23T01:38:30;8.07;;;6.50;;
73733;SDS011;62039;50.000;9.064;2024-03-23T01:40:56;7.20;;;6.43;;
73733;SDS011;62039;50.000;9.064;2024-03-23T01:43:22;6.70;;;6.00;;
73733;SDS011;62039;50.000;9.064;2024-03-23T01:45:50;7.43;;;6.63;;
73733;SDS011;62039;50.000;9.064;2024-03-23T01:48:17;7.23;;;6.53;;
73733;SDS011;62039;50.000;9.064;2024-03-23T01:50:42;7.20;;;6.50;;
73733;SDS011;62039;50.000;9.064;2024-03-23T01:53:08;7.80;;;6.37;;
73733;SDS011;62039;50.000;9.064;2024-03-23T01:55:34;6.53;;;5.43;;
73733;SDS011;62039;50.000;9.064;2024-03-23T01:58:00;6.43;;;5.83;;
73733;SDS011;62039;50.000;9.064;2024-03-23T02:00:26;6.07;;;5.47;;
73733;SDS011;62039;50.000;9.064;2024-03-23T02:02:54;7.20;;;5.73;;
73733;SDS011;62039;50.000;9.064;2024-03-23T02:05:20;6.13;;;5.10;;
73733;SDS011;62039;50.000;9.064;2024-03-23T02:07:46;5.40;;;4.90;;
73733;SDS011;62039;50.000;9.064;2024-03-23T02:10:12;6.53;;;5.40;;
73733;SDS011;62039;50.000;9.064;2024-03-23T02:12:37;6.17;;;5.53;;
73733;SDS011;62039;50.000;9.064;2024-03-23T02:15:03;6.33;;;5.30;;
73733;SDS011;62039;50.000;9.064;2024-03-23T02:17:30;6.50;;;5.87;;
73733;SDS011;62039;50.000;9.064;2024-03-23T02:19:59;6.97;;;6.27;;
73733;SDS011;62039;50.000;9.064;2024-03-23T02:22:25;6.57;;;5.80;;
73733;SDS011;62039;50.000;9.064;2024-03-23T02:25:03;6.77;;;6.17;;
73733;SDS011;62039;50.000;9.064;2024-03-23T02:27:29;6.53;;;5.83;;
73733;SDS011;62039;50.000;9.064;2024-03-23T02:29:55;6.93;;;6.23;;
73733;SDS011;62039;50.000;9.064;2024-03-23T02:32:21;6.27;;;5.67;;
73733;SDS011;62039;50.000;9.064;2024-03-23T02:34:47;6.80;;;5.77;;
73733;SDS011;62039;50.000;9.064;2024-03-23T02:37:12;9.13;;;7.37;;
73733;SDS011;62039;50.000;9.064;2024-03-23T02:39:38;6.63;;;6.03;;
73733;SDS011;62039;50.000;9.064;2024-03-23T02:42:07;7.80;;;5.87;;
73733;SDS011;62039;50.000;9.064;2024-03-23T02:44:32;6.07;;;5.30;;
73733;SDS011;62039;50.000;9.064;2024-03-23T02:46:58;6.00;;;5.40;;
73733;SDS011;62039;50.000;9.064;2024-03-23T02:49:24;5.80;;;5.20;;
73733;SDS011;62039;50.000;9.064;2024-03-23T02:51:50;5.67;;;5.17;;
73733;SDS011;62039;50.000;9.064;2024-03-23T02:54:16;7.33;;;5.07;;
73733;SDS011;62039;50.000;9.064;2024-03-23T02:56:42;4.63;;;4.07;;
73733;SDS011;62039;50.000;9.064;2024-03-23T02:59:10;6.43;;;4.60;;
73733;SDS011;62039;50.000;9.064;2024-03-23T03:01:36;5.37;;;4.73;;
73733;SDS011;62039;50.000;9.064;2024-03-23T03:04:02;6.30;;;4.97;;
73733;SDS011;62039;50.000;9.064;2024-03-23T03:06:27;4.90;;;4.17;;
73733;SDS011;62039;50.000;9.064;2024-03-23T03:08:55;5.50;;;4.50;;
73733;SDS011;62039;50.000;9.064;2024-03-23T03:11:21;5.47;;;4.27;;
73733;SDS011;62039;50.000;9.064;2024-03-23T03:13:46;4.73;;;4.20;;
73733;SDS011;62039;50.000;9.064;2024-03-23T03:16:15;4.83;;;4.27;;
73733;SDS011;62039;50.000;9.064;2024-03-23T03:18:41;4.60;;;4.20;;
73733;SDS011;62039;50.000;9.064;2024-03-23T03:21:06;4.57;;;4.10;;
73733;SDS011;62039;50.000;9.064;2024-03-23T03:23:32;5.00;;;4.47;;
73733;SDS011;62039;50.000;9.064;2024-03-23T03:25:58;5.70;;;4.53;;
73733;SDS011;62039;50.000;9.064;2024-03-23T03:28:24;4.73;;;4.20;;
73733;SDS011;62039;50.000;9.064;2024-03-23T03:30:50;5.57;;;4.77;;
73733;SDS011;62039;50.000;9.064;2024-03-23T03:33:18;6.30;;;5.13;;
73733;SDS011;62039;50.000;9.064;2024-03-23T03:35:44;6.03;;;5.00;;
73733;SDS011;62039;50.000;9.064;2024-03-23T03:38:10;5.37;;;4.83;;
73733;SDS011;62039;50.000;9.064;2024-03-23T03:40:35;5.93;;;5.00;;
73733;SDS011;62039;50.000;9.064;2024-03-23T03:43:01;5.50;;;5.00;;
73733;SDS011;62039;50.000;9.064;2024-03-23T03:45:27;5.17;;;4.77;;
73733;SDS011;62039;50.000;9.064;2024-03-23T03:47:53;5.07;;;4.63;;
73733;SDS011;62039;50.000;9.064;2024-03-23T03:50:21;4.80;;;4.40;;
73733;SDS011;62039;50.000;9.064;2024-03-23T03:52:47;5.43;;;4.93;;
73733;SDS011;62039;50.000;9.064;2024-03-23T03:55:13;6.03;;;5.53;;
73733;SDS011;62039;50.000;9.064;2024-03-23T03:57:39;5.90;;;5.30;;
73733;SDS011;62039;50.000;9.064;2024-03-23T04:00:06;7.27;;;6.57;;
73733;SDS011;62039;50.000;9.064;2024-03-23T04:02:32;7.40;;;6.30;;
73733;SDS011;62039;50.000;9.064;2024-03-23T04:04:58;6.93;;;5.97;;
73733;SDS011;62039;50.000;9.064;2024-03-23T04:07:27;7.20;;;5.53;;
73733;SDS011;62039;50.000;9.064;2024-03-23T04:09:52;7.13;;;5.70;;
73733;SDS011;62039;50.000;9.064;2024-03-23T04:12:18;6.87;;;5.70;;
73733;SDS011;62039;50.000;9.064;2024-03-23T04:14:44;5.70;;;5.17;;
73733;SDS011;62039;50.000;9.064;2024-03-23T04:17:10;6.40;;;5.53;;
73733;SDS011;62039;50.000;9.064;2024-03-23T04:19:35;7.13;;;6.10;;
73733;SDS011;62039;50.000;9.064;2024-03-23T04:22:01;6.47;;;5.87;;
73733;SDS011;62039;50.000;9.064;2024-03-23T04:24:30;6.43;;;5.80;;
73733;SDS011;62039;50.000;9.064;2024-03-23T04:26:55;6.20;;;5.60;;
73733;SDS011;62039;50.000;9.064;2024-03-23T04:29:21;6.60;;;5.97;;
73733;SDS011;62039;50.000;9.064;2024-03-23T04:31:47;6.43;;;5.83;;
73733;SDS011;62039;50.000;9.064;2024-03-23T04:34:13;7.67;;;6.30;;
73733;SDS011;62039;50.000;9.064;2024-03-23T04:36:39;7.40;;;6.50;;
73733;SDS011;62039;50.000;9.064;2024-03-23T04:39:05;8.50;;;7.23;;
73733;SDS011;62039;50.000;9.064;2024-03-23T04:41:33;6.67;;;6.00;;
73733;SDS011;62039;50.000;9.064;2024-03-23T04:43:59;7.15;;;6.50;;
73733;SDS011;62039;50.000;9.064;2024-03-23T04:46:24;7.30;;;6.50;;
73733;SDS011;62039;50.000;9.064;2024-03-23T04:48:50;9.03;;;7.63;;
73733;SDS011;62039;50.000;9.064;2024-03-23T04:51:22;10.03;;;8.87;;
73733;SDS011;62039;50.000;9.064;2024-03-23T04:53:48;10.63;;;9.30;;
73733;SDS011;62039;50.000;9.064;2024-03-23T04:56:14;13.17;;;11.70;;
73733;SDS011;62039;50.000;9.064;2024-03-23T04:58:43;11.67;;;10.43;;
73733;SDS011;62039;50.000;9.064;2024-03-23T05:01:10;12.70;;;10.40;;
73733;SDS011;62039;50.000;9.064;2024-03-23T05:03:36;13.47;;;11.37;;
73733;SDS011;62039;50.000;9.064;2024-03-23T05:06:02;11.13;;;9.93;;
73733;SDS011;62039;50.000;9.064;2024-03-23T05:08:29;9.60;;;8.60;;
73733;SDS011;62039;50.000;9.064;2024-03-23T05:10:54;10.00;;;8.13;;
73733;SDS011;62039;50.000;9.064;2024-03-23T05:13:20;8.60;;;7.67;;
73733;SDS011;62039;50.000;9.064;2024-03-23T05:15:53;11.50;;;8.23;;
73733;SDS011;62039;50.000;9.064;2024-03-23T05:18:19;8.33;;;6.90;;
73733;SDS011;62039;50.000;9.064;2024-03-23T05:20:45;12.80;;;7.43;;
73733;SDS011;62039;50.000;9.064;2024-03-23T05:23:10;7.60;;;6.50;;
73733;SDS011;62039;50.000;9.064;2024-03-23T05:25:36;7.60;;;6.20;;
73733;SDS011;62039;50.000;9.064;2024-03-23T05:28:02;6.77;;;5.70;;
73733;SDS011;62039;50.000;9.064;2024-03-23T05:30:28;6.80;;;5.93;;
73733;SDS011;62039;50.000;9.064;2024-03-23T05:32:56;6.93;;;5.30;;
73733;SDS011;62039;50.000;9.064;2024-03-23T05:35:22;5.93;;;5.33;;
73733;SDS011;62039;50.000;9.064;2024-03-23T05:37:48;5.73;;;5.13;;
73733;SDS011;62039;50.000;9.064;2024-03-23T05:40:14;5.17;;;4.40;;
73733;SDS011;62039;50.000;9.064;2024-03-23T05:42:40;6.23;;;3.97;;
73733;SDS011;62039;50.000;9.064;2024-03-23T05:45:06;3.37;;;2.93;;
73733;SDS011;62039;50.000;9.064;2024-03-23T05:47:32;2.37;;;2.10;;
73733;SDS011;62039;50.000;9.064;2024-03-23T05:50:01;1.47;;;1.37;;
73733;SDS011;62039;50.000;9.064;2024-03-23T05:52:27;1.30;;;1.10;;
73733;SDS011;62039;50.000;9.064;2024-03-23T05:54:52;0.90;;;0.80;;
73733;SDS011;62039;50.000;9.064;2024-03-23T05:57:18;0.93;;;0.80;;
73733;SDS011;62039;50.000;9.064;2024-03-23T05:59:44;0.70;;;0.70;;
73733;SDS011;62039;50.000;9.064;2024-03-23T06:02:10;0.70;;;0.70;;
73733;SDS011;62039;50.000;9.064;2024-03-23T06:04:36;0.70;;;0.70;;
73733;SDS011;62039;50.000;9.064;2024-03-23T06:07:04;0.50;;;0.50;;
73733;SDS011;62039;50.000;9.064;2024-03-23T06:09:30;0.87;;;0.70;;
73733;SDS011;62039;50.000;9.064;2024-03-23T06:11:56;0.50;;;0.50;;
73733;SDS011;62039;50.000;9.064;2024-03-23T06:14:22;0.70;;;0.60;;
73733;SDS011;62039;50.000;9.064;2024-03-23T06:16:47;0.60;;;0.60;;
73733;SDS011;62039;50.000;9.064;2024-03-23T06:19:13;0.60;;;0.60;;
73733;SDS011;62039;50.000;9.064;2024-03-23T06:21:42;0.80;;;0.70;;
73733;SDS011;62039;50.000;9.064;2024-03-23T06:24:11;0.80;;;0.70;;
73733;SDS011;62039;50.000;9.064;2024-03-23T06:26:37;1.00;;;0.80;;
73733;SDS011;62039;50.000;9.064;2024-03-23T06:29:02;0.70;;;0.70;;
73733;SDS011;62039;50.000;9.064;2024-03-23T06:31:28;0.70;;;0.70;;
73733;SDS011;62039;50.000;9.064;2024-03-23T06:33:54;0.80;;;0.80;;
73733;SDS011;62039;50.000;9.064;2024-03-23T06:36:20;0.87;;;0.70;;
73733;SDS011;62039;50.000;9.064;2024-03-23T06:38:46;0.57;;;0.57;;
73733;SDS011;62039;50.000;9.064;2024-03-23T06:41:14;0.93;;;0.60;;
73733;SDS011;62039;50.000;9.064;2024-03-23T06:43:40;0.70;;;0.67;;
73733;SDS011;62039;50.000;9.064;2024-03-23T06:46:06;0.60;;;0.60;;
73733;SDS011;62039;50.000;9.064;2024-03-23T06:48:32;0.70;;;0.70;;
73733;SDS011;62039;50.000;9.064;2024-03-23T06:50:58;0.97;;;0.70;;
73733;SDS011;62039;50.000;9.064;2024-03-23T06:53:24;1.10;;;0.60;;
73733;SDS011;62039;50.000;9.064;2024-03-23T06:55:50;0.70;;;0.60;;
73733;SDS011;62039;50.000;9.064;2024-03-23T06:58:19;0.60;;;0.57;;
73733;SDS011;62039;50.000;9.064;2024-03-23T07:00:45;0.60;;;0.60;;
73733;SDS011;62039;50.000;9.064;2024-03-23T07:03:11;0.70;;;0.50;;
73733;SDS011;62039;50.000;9.064;2024-03-23T07:05:36;0.60;;;0.60;;
73733;SDS011;62039;50.000;9.064;2024-03-23T07:08:02;0.43;;;0.43;;
73733;SDS011;62039;50.000;9.064;2024-03-23T07:10:28;0.53;;;0.53;;
73733;SDS011;62039;50.000;9.064;2024-03-23T07:12:54;0.50;;;0.50;;
73733;SDS011;62039;50.000;9.064;2024-03-23T07:15:22;0.70;;;0.40;;
73733;SDS011;62039;50.000;9.064;2024-03-23T07:17:48;0.50;;;0.50;;
73733;SDS011;62039;50.000;9.064;2024-03-23T07:20:14;0.30;;;0.30;;
73733;SDS011;62039;50.000;9.064;2024-03-23T07:22:40;0.97;;;0.50;;
73733;SDS011;62039;50.000;9.064;2024-03-23T07:25:06;0.50;;;0.40;;
73733;SDS011;62039;50.000;9.064;2024-03-23T07:27:32;0.50;;;0.50;;
73733;SDS011;62039;50.000;9.064;2024-03-23T07:29:58;0.60;;;0.60;;
73733;SDS011;62039;50.000;9.064;2024-03-23T07:32:27;0.50;;;0.50;;
73733;SDS011;62039;50.000;9.064;2024-03-23T07:34:52;0.93;;;0.70;;
73733;SDS011;62039;50.000;9.064;2024-03-23T07:37:18;0.50;;;0.50;;
73733;SDS011;62039;50.000;9.064;2024-03-23T07:39:44;0.50;;;0.50;;
73733;SDS011;62039;50.000;9.064;2024-03-23T07:42:10;0.67;;;0.60;;
73733;SDS011;62039;50.000;9.064;2024-03-23T07:44:36;0.63;;;0.50;;
73733;SDS011;62039;50.000;9.064;2024-03-23T07:47:01;0.70;;;0.70;;
73733;SDS011;62039;50.000;9.064;2024-03-23T07:49:30;1.03;;;0.60;;
73733;SDS011;62039;50.000;9.064;2024-03-23T07:51:56;0.70;;;0.40;;
73733;SDS011;62039;50.000;9.064;2024-03-23T07:54:21;1.23;;;0.53;;
73733;SDS011;62039;50.000;9.064;2024-03-23T07:56:47;2.00;;;0.60;;
73733;SDS011;62039;50.000;9.064;2024-03-23T07:59:13;1.40;;;0.73;;
73733;SDS011;62039;50.000;9.064;2024-03-23T08:01:39;1.77;;;0.70;;
73733;SDS011;62039;50.000;9.064;2024-03-23T08:04:05;0.90;;;0.60;;
73733;SDS011;62039;50.000;9.064;2024-03-23T08:06:33;0.90;;;0.60;;
73733;SDS011;62039;50.000;9.064;2024-03-23T08:08:59;0.63;;;0.63;;
73733;SDS011;62039;50.000;9.064;2024-03-23T08:11:25;1.97;;;0.90;;
73733;SDS011;62039;50.000;9.064;2024-03-23T08:13:51;1.00;;;0.63;;
73733;SDS011;62039;50.000;9.064;2024-03-23T08:16:17;1.53;;;0.80;;
73733;SDS011;62039;50.000;9.064;2024-03-23T08:18:42;1.27;;;0.60;;
73733;SDS011;62039;50.000;9.064;2024-03-23T08:21:08;1.60;;;0.80;;
73733;SDS011;62039;50.000;9.064;2024-03-23T08:23:36;2.10;;;0.80;;
73733;SDS011;62039;50.000;9.064;2024-03-23T08:26:03;2.07;;;0.70;;
73733;SDS011;62039;50.000;9.064;2024-03-23T08:28:31;1.20;;;0.80;;
73733;SDS011;62039;50.000;9.064;2024-03-23T08:31:00;0.97;;;0.77;;
73733;SDS011;62039;50.000;9.064;2024-03-23T08:33:26;1.43;;;0.80;;
73733;SDS011;62039;50.000;9.064;2024-03-23T08:35:53;1.30;;;0.70;;
73733;SDS011;62039;50.000;9.064;2024-03-23T08:38:19;1.87;;;0.80;;
73733;SDS011;62039;50.000;9.064;2024-03-23T08:40:48;0.90;;;0.80;;
73733;SDS011;62039;50.000;9.064;2024-03-23T08:43:13;2.20;;;1.00;;
73733;SDS011;62039;50.000;9.064;2024-03-23T08:45:39;1.90;;;0.90;;
73733;SDS011;62039;50.000;9.064;2024-03-23T08:48:05;1.60;;;0.90;;
73733;SDS011;62039;50.000;9.064;2024-03-23T08:50:31;1.53;;;1.00;;
73733;SDS011;62039;50.000;9.064;2024-03-23T08:52:57;2.03;;;0.90;;
73733;SDS011;62039;50.000;9.064;2024-03-23T08:55:23;1.90;;;1.17;;
73733;SDS011;62039;50.000;9.064;2024-03-23T08:57:51;3.80;;;1.50;;
73733;SDS011;62039;50.000;9.064;2024-03-23T09:00:17;3.30;;;1.63;;
73733;SDS011;62039;50.000;9.064;2024-03-23T09:02:44;2.97;;;1.93;;
73733;SDS011;62039;50.000;9.064;2024-03-23T09:05:12;3.47;;;2.00;;
73733;SDS011;62039;50.000;9.064;2024-03-23T09:07:38;3.40;;;1.90;;
73733;SDS011;62039;50.000;9.064;2024-03-23T09:10:04;3.80;;;1.70;;
73733;SDS011;62039;50.000;9.064;2024-03-23T09:12:31;3.53;;;1.97;;
73733;SDS011;62039;50.000;9.064;2024-03-23T09:14:59;3.20;;;1.90;;
73733;SDS011;62039;50.000;9.064;2024-03-23T09:17:25;3.17;;;2.13;;
73733;SDS011;62039;50.000;9.064;2024-03-23T09:19:51;3.37;;;2.07;;
73733;SDS011;62039;50.000;9.064;2024-03-23T09:22:16;4.10;;;2.23;;
73733;SDS011;62039;50.000;9.064;2024-03-23T09:24:42;3.17;;;2.03;;
73733;SDS011;62039;50.000;9.064;2024-03-23T09:27:08;3.87;;;2.00;;
73733;SDS011;62039;50.000;9.064;2024-03-23T09:29:34;3.20;;;2.20;;
73733;SDS011;62039;50.000;9.064;2024-03-23T09:32:02;2.37;;;2.03;;
73733;SDS011;62039;50.000;9.064;2024-03-23T09:34:28;4.17;;;2.33;;
73733;SDS011;62039;50.000;9.064;2024-03-23T09:36:54;2.60;;;1.83;;
73733;SDS011;62039;50.000;9.064;2024-03-23T09:39:20;3.37;;;1.93;;
73733;SDS011;62039;50.000;9.064;2024-03-23T09:41:46;3.40;;;1.93;;
73733;SDS011;62039;50.000;9.064;2024-03-23T09:44:12;3.03;;;1.70;;
73733;SDS011;62039;50.000;9.064;2024-03-23T09:46:38;3.87;;;1.70;;
73733;SDS011;62039;50.000;9.064;2024-03-23T09:49:06;3.07;;;2.10;;
73733;SDS011;62039;50.000;9.064;2024-03-23T09:51:32;4.23;;;2.07;;
73733;SDS011;62039;50.000;9.064;2024-03-23T09:54:00;3.73;;;1.70;;
73733;SDS011;62039;50.000;9.064;2024-03-23T09:56:26;4.27;;;1.90;;
73733;SDS011;62039;50.000;9.064;2024-03-23T09:58:51;2.00;;;1.60;;
73733;SDS011;62039;50.000;9.064;2024-03-23T10:01:25;3.60;;;1.83;;
73733;SDS011;62039;50.000;9.064;2024-03-23T10:03:51;3.63;;;1.60;;
73733;SDS011;62039;50.000;9.064;2024-03-23T10:06:20;2.63;;;1.73;;
73733;SDS011;62039;50.000;9.064;2024-03-23T10:08:47;4.47;;;1.70;;
73733;SDS011;62039;50.000;9.064;2024-03-23T10:11:13;2.43;;;1.43;;
73733;SDS011;62039;50.000;9.064;2024-03-23T10:13:40;3.80;;;1.63;;
73733;SDS011;62039;50.000;9.064;2024-03-23T10:16:07;3.30;;;1.67;;
73733;SDS011;62039;50.000;9.064;2024-03-23T10:18:33;2.93;;;1.77;;
73733;SDS011;62039;50.000;9.064;2024-03-23T10:21:09;4.20;;;1.87;;
73733;SDS011;62039;50.000;9.064;2024-03-23T10:23:38;4.50;;;2.03;;
73733;SDS011;62039;50.000;9.064;2024-03-23T10:26:15;4.13;;;1.60;;
73733;SDS011;62039;50.000;9.064;2024-03-23T10:28:50;2.97;;;1.53;;
73733;SDS011;62039;50.000;9.064;2024-03-23T10:31:17;5.03;;;1.80;;
73733;SDS011;62039;50.000;9.064;2024-03-23T10:33:44;2.77;;;1.63;;
73733;SDS011;62039;50.000;9.064;2024-03-23T10:36:10;3.10;;;1.50;;
73733;SDS011;62039;50.000;9.064;2024-03-23T10:38:39;4.13;;;1.60;;
73733;SDS011;62039;50.000;9.064;2024-03-23T10:41:06;2.90;;;1.50;;
73733;SDS011;62039;50.000;9.064;2024-03-23T10:43:33;3.60;;;1.67;;
73733;SDS011;62039;50.000;9.064;2024-03-23T10:45:59;3.97;;;2.00;;
73733;SDS011;62039;50.000;9.064;2024-03-23T10:48:25;5.07;;;2.30;;
73733;SDS011;62039;50.000;9.064;2024-03-23T10:50:51;3.83;;;1.80;;
73733;SDS011;62039;50.000;9.064;2024-03-23T10:53:18;5.07;;;1.87;;
73733;SDS011;62039;50.000;9.064;2024-03-23T10:55:47;4.33;;;1.73;;
73733;SDS011;62039;50.000;9.064;2024-03-23T10:58:12;4.93;;;2.10;;
73733;SDS011;62039;50.000;9.064;2024-03-23T11:00:38;3.80;;;1.70;;
73733;SDS011;62039;50.000;9.064;2024-03-23T11:05:58;3.13;;;1.80;;
73733;SDS011;62039;50.000;9.064;2024-03-23T11:08:31;4.00;;;1.60;;
73733;SDS011;62039;50.000;9.064;2024-03-23T11:13:42;3.20;;;1.13;;
73733;SDS011;62039;50.000;9.064;2024-03-23T11:16:14;3.10;;;1.40;;
73733;SDS011;62039;50.000;9.064;2024-03-23T11:18:41;3.67;;;1.20;;
73733;SDS011;62039;50.000;9.064;2024-03-23T11:21:07;3.33;;;1.60;;
73733;SDS011;62039;50.000;9.064;2024-03-23T11:23:33;3.47;;;1.60;;
73733;SDS011;62039;50.000;9.064;2024-03-23T11:25:59;4.03;;;1.40;;
73733;SDS011;62039;50.000;9.064;2024-03-23T11:28:27;2.47;;;1.40;;
73733;SDS011;62039;50.000;9.064;2024-03-23T11:30:53;6.20;;;2.37;;
73733;SDS011;62039;50.000;9.064;2024-03-23T11:33:19;4.73;;;1.97;;
73733;SDS011;62039;50.000;9.064;2024-03-23T11:35:45;3.37;;;1.27;;
73733;SDS011;62039;50.000;9.064;2024-03-23T11:38:11;2.53;;;0.97;;
73733;SDS011;62039;50.000;9.064;2024-03-23T11:40:38;2.93;;;1.20;;
73733;SDS011;62039;50.000;9.064;2024-03-23T11:43:05;3.63;;;1.60;;
73733;SDS011;62039;50.000;9.064;2024-03-23T11:45:39;1.63;;;0.90;;
73733;SDS011;62039;50.000;9.064;2024-03-23T11:48:06;2.80;;;0.90;;
73733;SDS011;62039;50.000;9.064;2024-03-23T11:50:33;1.33;;;0.83;;
73733;SDS011;62039;50.000;9.064;2024-03-23T11:53:11;2.10;;;1.10;;
73733;SDS011;62039;50.000;9.064;2024-03-23T11:55:39;1.40;;;0.97;;
73733;SDS011;62039;50.000;9.064;2024-03-23T11:58:09;2.07;;;1.03;;
73733;SDS011;62039;50.000;9.064;2024-03-23T12:00:38;3.50;;;1.70;;
73733;SDS011;62039;50.000;9.064;2024-03-23T12:03:04;2.67;;;1.07;;
73733;SDS011;62039;50.000;9.064;2024-03-23T12:05:30;1.60;;;1.00;;
73733;SDS011;62039;50.000;9.064;2024-03-23T12:10:44;2.63;;;0.90;;
73733;SDS011;62039;50.000;9.064;2024-03-23T12:13:10;2.10;;;0.90;;
73733;SDS011;62039;50.000;9.064;2024-03-23T12:15:38;2.63;;;0.87;;
73733;SDS011;62039;50.000;9.064;2024-03-23T12:18:07;3.73;;;1.10;;
73733;SDS011;62039;50.000;9.064;2024-03-23T12:20:33;3.37;;;1.20;;
73733;SDS011;62039;50.000;9.064;2024-03-23T12:23:09;2.40;;;1.40;;
73733;SDS011;62039;50.000;9.064;2024-03-23T12:25:36;1.20;;;0.87;;
73733;SDS011;62039;50.000;9.064;2024-03-23T12:28:03;1.43;;;0.80;;
73733;SDS011;62039;50.000;9.064;2024-03-23T12:30:29;2.13;;;1.00;;
73733;SDS011;62039;50.000;9.064;2024-03-23T12:32:58;1.43;;;0.80;;
73733;SDS011;62039;50.000;9.064;2024-03-23T12:35:23;2.23;;;0.90;;
73733;SDS011;62039;50.000;9.064;2024-03-23T12:37:49;3.00;;;1.30;;
73733;SDS011;62039;50.000;9.064;2024-03-23T12:40:15;2.03;;;1.00;;
73733;SDS011;62039;50.000;9.064;2024-03-23T12:42:41;2.97;;;1.17;;
73733;SDS011;62039;50.000;9.064;2024-03-23T12:45:07;4.67;;;1.23;;
73733;SDS011;62039;50.000;9.064;2024-03-23T12:47:33;3.77;;;1.50;;
73733;SDS011;62039;50.000;9.064;2024-03-23T12:50:02;2.43;;;1.23;;
73733;SDS011;62039;50.000;9.064;2024-03-23T12:52:28;3.47;;;1.30;;
73733;SDS011;62039;50.000;9.064;2024-03-23T12:54:54;4.47;;;1.40;;
73733;SDS011;62039;50.000;9.064;2024-03-23T12:57:20;3.77;;;1.73;;
73733;SDS011;62039;50.000;9.064;2024-03-23T12:59:46;2.37;;;1.20;;
73733;SDS011;62039;50.000;9.064;2024-03-23T13:02:12;2.70;;;1.17;;
73733;SDS011;62039;50.000;9.064;2024-03-23T13:04:38;3.20;;;1.40;;
73733;SDS011;62039;50.000;9.064;2024-03-23T13:07:06;2.70;;;1.50;;
73733;SDS011;62039;50.000;9.064;2024-03-23T13:09:32;2.77;;;1.20;;
73733;SDS011;62039;50.000;9.064;2024-03-23T13:11:58;3.87;;;1.63;;
73733;SDS011;62039;50.000;9.064;2024-03-23T13:14:23;3.10;;;1.20;;
73733;SDS011;62039;50.000;9.064;2024-03-23T13:16:49;2.67;;;1.30;;
73733;SDS011;62039;50.000;9.064;2024-03-23T13:19:15;2.53;;;1.20;;
73733;SDS011;62039;50.000;9.064;2024-03-23T13:21:41;2.03;;;1.10;;
73733;SDS011;62039;50.000;9.064;2024-03-23T13:24:09;2.30;;;1.23;;
73733;SDS011;62039;50.000;9.064;2024-03-23T13:26:35;3.23;;;1.40;;
73733;SDS011;62039;50.000;9.064;2024-03-23T13:29:01;2.07;;;1.10;;
73733;SDS011;62039;50.000;9.064;2024-03-23T13:31:26;3.17;;;1.33;;
73733;SDS011;62039;50.000;9.064;2024-03-23T13:33:52;3.30;;;1.53;;
73733;SDS011;62039;50.000;9.064;2024-03-23T13:36:18;3.67;;;2.03;;
73733;SDS011;62039;50.000;9.064;2024-03-23T13:38:44;6.47;;;2.00;;
73733;SDS011;62039;50.000;9.064;2024-03-23T13:41:12;5.37;;;2.00;;
73733;SDS011;62039;50.000;9.064;2024-03-23T13:43:38;2.10;;;1.20;;
73733;SDS011;62039;50.000;9.064;2024-03-23T13:46:04;3.47;;;1.40;;
73733;SDS011;62039;50.000;9.064;2024-03-23T13:48:29;3.33;;;1.50;;
73733;SDS011;62039;50.000;9.064;2024-03-23T13:50:58;2.03;;;1.57;;
73733;SDS011;62039;50.000;9.064;2024-03-23T13:53:24;4.33;;;1.23;;
73733;SDS011;62039;50.000;9.064;2024-03-23T13:55:50;3.20;;;1.00;;
73733;SDS011;62039;50.000;9.064;2024-03-23T13:58:18;3.03;;;1.03;;
73733;SDS011;62039;50.000;9.064;2024-03-23T14:00:44;2.37;;;0.90;;
73733;SDS011;62039;50.000;9.064;2024-03-23T14:03:11;1.07;;;0.80;;
73733;SDS011;62039;50.000;9.064;2024-03-23T14:05:37;1.20;;;0.70;;
73733;SDS011;62039;50.000;9.064;2024-03-23T14:08:04;1.27;;;0.80;;
73733;SDS011;62039;50.000;9.064;2024-03-23T14:10:30;0.97;;;0.70;;
73733;SDS011;62039;50.000;9.064;2024-03-23T14:12:56;0.63;;;0.57;;
73733;SDS011;62039;50.000;9.064;2024-03-23T14:15:24;1.63;;;0.70;;
73733;SDS011;62039;50.000;9.064;2024-03-23T14:17:50;1.33;;;0.80;;
73733;SDS011;62039;50.000;9.064;2024-03-23T14:20:15;1.67;;;0.90;;
73733;SDS011;62039;50.000;9.064;2024-03-23T14:22:41;1.43;;;0.87;;
73733;SDS011;62039;50.000;9.064;2024-03-23T14:25:07;1.80;;;1.10;;
73733;SDS011;62039;50.000;9.064;2024-03-23T14:27:33;1.67;;;0.90;;
73733;SDS011;62039;50.000;9.064;2024-03-23T14:29:59;1.43;;;0.90;;
73733;SDS011;62039;50.000;9.064;2024-03-23T14:32:27;1.23;;;0.90;;
73733;SDS011;62039;50.000;9.064;2024-03-23T14:34:53;1.33;;;0.80;;
73733;SDS011;62039;50.000;9.064;2024-03-23T14:37:19;1.57;;;0.77;;
73733;SDS011;62039;50.000;9.064;2024-03-23T14:39:45;1.10;;;0.70;;
73733;SDS011;62039;50.000;9.064;2024-03-23T14:42:10;1.67;;;0.80;;
73733;SDS011;62039;50.000;9.064;2024-03-23T14:44:36;1.03;;;0.70;;
73733;SDS011;62039;50.000;9.064;2024-03-23T14:47:02;0.70;;;0.63;;
73733;SDS011;62039;50.000;9.064;2024-03-23T14:49:31;0.90;;;0.80;;
73733;SDS011;62039;50.000;9.064;2024-03-23T14:51:57;2.13;;;1.00;;
73733;SDS011;62039;50.000;9.064;2024-03-23T14:54:22;1.03;;;0.70;;
73733;SDS011;62039;50.000;9.064;2024-03-23T14:56:48;0.90;;;0.70;;
73733;SDS011;62039;50.000;9.064;2024-03-23T14:59:14;0.87;;;0.67;;
73733;SDS011;62039;50.000;9.064;2024-03-23T15:01:40;2.07;;;0.80;;
73733;SDS011;62039;50.000;9.064;2024-03-23T15:04:06;0.90;;;0.80;;
73733;SDS011;62039;50.000;9.064;2024-03-23T15:06:34;1.17;;;1.00;;
73733;SDS011;62039;50.000;9.064;2024-03-23T15:09:00;2.40;;;1.70;;
73733;SDS011;62039;50.000;9.064;2024-03-23T15:11:26;3.23;;;1.40;;
73733;SDS011;62039;50.000;9.064;2024-03-23T15:13:52;1.10;;;1.00;;
73733;SDS011;62039;50.000;9.064;2024-03-23T15:16:18;2.33;;;1.10;;
73733;SDS011;62039;50.000;9.064;2024-03-23T15:18:43;1.20;;;0.97;;
73733;SDS011;62039;50.000;9.064;2024-03-23T15:21:09;1.57;;;0.90;;
73733;SDS011;62039;50.000;9.064;2024-03-23T15:23:38;1.60;;;1.10;;
73733;SDS011;62039;50.000;9.064;2024-03-23T15:26:03;1.67;;;0.93;;
73733;SDS011;62039;50.000;9.064;2024-03-23T15:28:30;2.07;;;1.10;;
73733;SDS011;62039;50.000;9.064;2024-03-23T15:30:58;2.37;;;0.93;;
73733;SDS011;62039;50.000;9.064;2024-03-23T15:33:24;1.73;;;1.30;;
73733;SDS011;62039;50.000;9.064;2024-03-23T15:35:50;1.17;;;0.90;;
73733;SDS011;62039;50.000;9.064;2024-03-23T15:38:15;1.17;;;0.87;;
73733;SDS011;62039;50.000;9.064;2024-03-23T15:40:44;1.40;;;0.80;;
73733;SDS011;62039;50.000;9.064;2024-03-23T15:43:16;1.07;;;0.80;;
73733;SDS011;62039;50.000;9.064;2024-03-23T15:45:42;1.67;;;0.80;;